Time;durP1;ratioP1;P1;durP2;ratioP2;P2;SDS_P1;SDS_P2;PMS_P1;PMS_P2;Temp;Humidity;BMP_temperature;BMP_pressure;BME280_temperature;BME280_humidity;BME280_pressure;Samples;Min_cycle;Max_cycle;Signal;HPM_P1;HPM_P2
2023/01/13 13:05:24;;;;;;;6.82;4.63;;;20.20;60.90;;;;;;5133339;27;20394;-75
2023/01/13 13:08:18;;;;;;;9.35;4.93;;;20.40;60.90;;;;;;5104980;28;20015;-75
2023/01/13 13:14:02;;;;;;;12.98;5.28;;;20.40;60.70;;;;;;5097932;28;20028;-75
2023/01/13 13:16:28;;;;;;;11.77;5.05;;;20.50;61.80;;;;;;5104770;28;20076;-75
2023/01/13 13:19:17;;;;;;;13.10;5.13;;;20.60;63.60;;;;;;5088846;28;20078;-74
2023/01/13 13:22:12;;;;;;;14.73;5.07;;;20.60;65.10;;;;;;5082727;28;20096;-75
2023/01/13 13:24:40;;;;;;;9.35;4.80;;;20.70;65.50;;;;;;5085038;28;20104;-75
2023/01/13 13:27:15;;;;;;;13.82;5.82;;;20.70;64.80;;;;;;5105666;28;20136;-75
2023/01/13 13:29:53;;;;;;;16.17;5.40;;;20.70;66.80;;;;;;5105742;28;20036;-74
2023/01/13 13:32:30;;;;;;;15.10;4.75;;;20.70;67.30;;;;;;5106652;28;20048;-76
2023/01/13 13:35:20;;;;;;;16.20;5.00;;;20.70;65.80;;;;;;5100298;28;20085;-75
2023/01/13 13:47:06;;;;;;;8.35;4.55;;;20.70;66.20;;;;;;5103085;28;20035;-75
2023/01/13 13:49:45;;;;;;;11.65;5.10;;;20.70;65.50;;;;;;5101582;28;20027;-75
2023/01/13 13:52:36;;;;;;;8.75;4.85;;;20.70;64.30;;;;;;5102920;28;20028;-75
2023/01/13 13:55:17;;;;;;;14.48;5.10;;;20.70;65.10;;;;;;5102059;28;20020;-75
2023/01/13 13:57:49;;;;;;;14.77;4.63;;;20.70;64.20;;;;;;5102963;28;20128;-75
2023/01/13 14:00:33;;;;;;;11.13;5.03;;;20.70;63.90;;;;;;5103994;28;20039;-74
2023/01/13 14:03:02;;;;;;;14.98;4.45;;;20.70;64.40;;;;;;5102904;28;20488;-74
2023/01/13 14:05:30;;;;;;;16.52;5.05;;;20.70;64.10;;;;;;5094827;28;20032;-75
2023/01/13 14:08:02;;;;;;;9.07;4.03;;;20.70;64.00;;;;;;5090046;28;20068;-75
2023/01/13 14:10:34;;;;;;;9.98;4.20;;;20.70;63.90;;;;;;5089073;28;20398;-75
2023/01/13 14:13:02;;;;;;;11.13;4.97;;;20.70;64.00;;;;;;5071863;28;20070;-75
2023/01/13 14:15:37;;;;;;;11.82;4.47;;;20.60;63.40;;;;;;5089826;28;20468;-75
2023/01/13 14:18:08;;;;;;;10.27;4.80;;;20.60;64.00;;;;;;5090074;28;20046;-75
2023/01/13 14:20:35;;;;;;;7.88;4.30;;;20.60;64.00;;;;;;5089476;28;20052;-75
2023/01/13 14:23:04;;;;;;;7.60;4.30;;;20.60;64.30;;;;;;5071594;28;20043;-74
2023/01/13 14:25:33;;;;;;;7.60;4.25;;;20.60;64.00;;;;;;5087299;28;20383;-75
2023/01/13 14:28:17;;;;;;;9.85;4.45;;;20.60;64.10;;;;;;5088923;28;20507;-75
2023/01/13 14:30:43;;;;;;;7.93;4.10;;;20.60;64.70;;;;;;5066000;28;20032;-75
2023/01/13 14:33:19;;;;;;;11.85;4.30;;;20.60;63.90;;;;;;5074052;28;20036;-74
2023/01/13 14:36:05;;;;;;;10.73;3.63;;;20.60;64.00;;;;;;5084653;28;20059;-75
2023/01/13 14:38:31;;;;;;;7.78;3.70;;;20.60;62.60;;;;;;5086089;28;20020;-75
2023/01/13 14:41:18;;;;;;;12.82;5.32;;;20.60;62.70;;;;;;5087263;28;20046;-75
2023/01/13 14:43:46;;;;;;;36.40;21.58;;;20.60;63.20;;;;;;5091475;28;20024;-75
2023/01/13 14:46:13;;;;;;;53.10;37.35;;;20.50;62.50;;;;;;5087618;28;20089;-75
2023/01/13 14:48:43;;;;;;;63.17;44.67;;;20.40;58.90;;;;;;5054208;28;20031;-75
2023/01/13 14:51:11;;;;;;;49.88;34.67;;;20.40;57.80;;;;;;5089974;28;20047;-76
2023/01/13 14:53:45;;;;;;;50.50;32.50;;;20.40;58.50;;;;;;5094043;28;20028;-76
2023/01/13 14:56:36;;;;;;;34.45;25.77;;;20.40;59.40;;;;;;5109959;28;20049;-76
2023/01/13 14:59:39;;;;;;;33.70;22.70;;;20.40;60.00;;;;;;5109861;28;20480;-76
2023/01/13 15:02:24;;;;;;;41.05;28.35;;;20.40;59.20;;;;;;5111795;28;20084;-75
2023/01/13 15:04:53;;;;;;;46.58;31.63;;;20.40;59.60;;;;;;5110922;28;20074;-76
2023/01/13 15:07:30;;;;;;;49.10;30.38;;;20.40;60.30;;;;;;5111242;28;20028;-75
2023/01/13 15:09:59;;;;;;;45.47;31.52;;;20.40;60.50;;;;;;5110147;28;20080;-75
2023/01/13 15:12:38;;;;;;;41.13;28.77;;;20.40;60.80;;;;;;5103716;28;20560;-76
2023/01/13 15:15:23;;;;;;;39.65;25.58;;;20.40;60.90;;;;;;5054543;28;20040;-76
2023/01/13 15:17:49;;;;;;;43.40;27.90;;;20.40;61.20;;;;;;5089710;28;20035;-76
2023/01/13 15:20:15;;;;;;;44.53;28.63;;;20.40;61.30;;;;;;5090849;28;20481;-76
2023/01/13 15:22:41;;;;;;;44.60;27.42;;;20.40;61.40;;;;;;5089702;28;20035;-75
2023/01/13 15:25:10;;;;;;;51.22;30.05;;;20.50;61.40;;;;;;5089018;28;20024;-75
2023/01/13 15:27:37;;;;;;;48.38;29.10;;;20.50;61.60;;;;;;5089445;28;20146;-75
2023/01/13 15:30:16;;;;;;;47.38;28.92;;;20.60;61.70;;;;;;5089240;28;20545;-76
2023/01/13 15:32:43;;;;;;;49.92;27.85;;;20.60;61.70;;;;;;5089595;28;20194;-75
2023/01/13 15:35:15;;;;;;;49.20;27.10;;;20.50;61.70;;;;;;5090693;28;20027;-76
2023/01/13 15:37:42;;;;;;;46.15;26.25;;;20.60;61.70;;;;;;5090209;28;20538;-75
2023/01/13 15:40:17;;;;;;;44.97;26.73;;;20.60;61.70;;;;;;5090236;28;20024;-75
2023/01/13 15:48:12;;;;;;;60.00;27.02;;;20.60;62.00;;;;;;5090674;28;20034;-76
2023/01/13 15:50:38;;;;;;;46.22;25.52;;;20.60;62.00;;;;;;5088899;28;20028;-76
2023/01/13 15:53:04;;;;;;;52.72;26.02;;;20.60;62.10;;;;;;5090219;28;20035;-76
2023/01/13 15:55:33;;;;;;;56.15;26.67;;;20.60;62.10;;;;;;5090284;28;20031;-75
2023/01/13 15:58:00;;;;;;;52.08;26.77;;;20.60;62.10;;;;;;5090065;28;20077;-76
2023/01/13 16:00:26;;;;;;;54.10;26.98;;;20.60;62.10;;;;;;5089034;28;20028;-76
2023/01/13 16:02:52;;;;;;;50.70;25.50;;;20.60;62.10;;;;;;5088903;28;20077;-76
2023/01/13 16:05:18;;;;;;;49.50;25.33;;;20.60;62.10;;;;;;5089507;28;20060;-76
2023/01/13 16:07:44;;;;;;;50.20;25.88;;;20.50;62.10;;;;;;5088687;28;20107;-76
2023/01/13 16:10:22;;;;;;;49.97;24.65;;;20.60;62.10;;;;;;5088683;28;20039;-76
2023/01/13 16:12:48;;;;;;;43.50;23.98;;;20.50;62.10;;;;;;5088639;28;20392;-75
2023/01/13 16:15:16;;;;;;;45.55;23.63;;;20.50;62.10;;;;;;5089624;28;20036;-76
2023/01/13 16:17:43;;;;;;;41.60;24.60;;;20.50;62.10;;;;;;5088896;28;20032;-75
2023/01/13 16:20:14;;;;;;;47.05;26.25;;;20.50;62.10;;;;;;5088385;28;20111;-75
2023/01/13 16:22:40;;;;;;;51.70;26.25;;;20.50;62.20;;;;;;5088729;28;20040;-75
2023/01/13 16:25:06;;;;;;;49.95;24.70;;;20.60;62.20;;;;;;5089442;28;20028;-75
2023/01/13 16:27:32;;;;;;;48.65;25.02;;;20.60;62.30;;;;;;5088400;28;20089;-75
2023/01/13 16:30:00;;;;;;;42.63;24.70;;;20.60;62.20;;;;;;5089703;28;20107;-74
2023/01/13 16:32:26;;;;;;;45.40;24.48;;;20.60;62.30;;;;;;5088496;28;20119;-75
2023/01/13 16:34:52;;;;;;;41.63;24.15;;;20.60;62.30;;;;;;5089092;28;20039;-75
2023/01/13 16:37:24;;;;;;;40.42;24.15;;;20.70;62.30;;;;;;5089348;28;20024;-75
2023/01/13 16:39:50;;;;;;;43.85;24.65;;;20.70;62.40;;;;;;5089710;28;20077;-75
2023/01/13 16:42:16;;;;;;;42.83;24.52;;;20.70;62.40;;;;;;5088005;28;20058;-75
2023/01/13 16:44:43;;;;;;;42.13;24.02;;;20.70;62.50;;;;;;5089257;28;20043;-76
2023/01/13 16:47:14;;;;;;;45.83;25.13;;;20.60;62.40;;;;;;5089411;28;20503;-76
2023/01/13 16:49:40;;;;;;;35.75;22.95;;;20.60;62.40;;;;;;5071355;28;20481;-75
2023/01/13 16:52:06;;;;;;;40.63;23.52;;;20.60;62.40;;;;;;5087979;28;20089;-76
2023/01/13 16:54:31;;;;;;;40.50;23.95;;;20.60;62.40;;;;;;5089031;28;20054;-76
2023/01/13 16:56:57;;;;;;;35.25;22.00;;;20.60;62.40;;;;;;5089096;28;20489;-75
2023/01/13 16:59:23;;;;;;;38.25;23.63;;;20.60;62.40;;;;;;5089354;28;20363;-76
2023/01/13 17:01:49;;;;;;;35.42;22.38;;;20.60;62.40;;;;;;5089137;28;20432;-75
2023/01/13 17:04:17;;;;;;;37.17;22.10;;;20.60;62.50;;;;;;5088220;28;20028;-76
2023/01/13 17:07:07;;;;;;;41.67;22.48;;;20.60;62.50;;;;;;5089368;28;20035;-75
2023/01/13 17:09:33;;;;;;;43.67;23.17;;;20.60;62.50;;;;;;5089376;28;20020;-76
2023/01/13 17:11:59;;;;;;;36.78;21.88;;;20.60;62.50;;;;;;5087823;28;20027;-76
2023/01/13 17:14:25;;;;;;;38.58;22.33;;;20.50;62.50;;;;;;5070719;28;20036;-75
2023/01/13 17:16:53;;;;;;;38.85;22.65;;;20.60;62.60;;;;;;5087867;28;20031;-75
2023/01/13 17:19:20;;;;;;;41.70;22.85;;;20.50;62.50;;;;;;5087802;28;20051;-75
2023/01/13 17:21:46;;;;;;;37.03;21.63;;;20.60;62.50;;;;;;5087779;28;20456;-75
2023/01/13 17:24:12;;;;;;;42.10;23.23;;;20.50;62.50;;;;;;5088523;28;20035;-75
2023/01/13 17:26:42;;;;;;;39.97;22.63;;;20.50;62.40;;;;;;5089334;28;20106;-76
2023/01/13 17:29:21;;;;;;;41.22;21.13;;;20.60;62.50;;;;;;5087837;28;20481;-75
2023/01/13 17:31:47;;;;;;;35.88;21.35;;;20.60;62.60;;;;;;5088147;28;20400;-74
2023/01/13 17:34:13;;;;;;;30.23;12.55;;;20.60;62.70;;;;;;5088559;28;20025;-79
2023/01/13 17:36:41;;;;;;;31.42;12.00;;;20.50;59.80;;;;;;5087858;28;20389;-76
2023/01/13 17:39:13;;;;;;;23.73;10.75;;;20.40;57.80;;;;;;5088022;28;20040;-78
2023/01/13 17:41:39;;;;;;;28.30;11.68;;;20.50;58.00;;;;;;5092055;28;20485;-77
2023/01/13 17:44:04;;;;;;;26.73;11.10;;;20.50;58.10;;;;;;5091440;28;20046;-77
2023/01/13 17:46:30;;;;;;;35.63;11.48;;;20.50;58.60;;;;;;5092420;28;20059;-77
2023/01/13 17:48:56;;;;;;;32.90;11.90;;;20.50;59.10;;;;;;5091571;28;20032;-77
2023/01/13 17:51:23;;;;;;;31.98;12.38;;;20.60;59.60;;;;;;5092614;28;20020;-77
2023/01/13 17:53:49;;;;;;;34.75;12.32;;;20.60;59.80;;;;;;5092409;28;20032;-77
2023/01/13 17:56:16;;;;;;;24.98;12.18;;;20.60;60.60;;;;;;5092261;28;20031;-76
2023/01/13 17:58:44;;;;;;;26.80;11.40;;;20.60;60.00;;;;;;5091132;28;20074;-76
2023/01/13 18:01:16;;;;;;;23.60;13.88;;;20.50;60.70;;;;;;5092316;28;20028;-76
2023/01/13 18:03:42;;;;;;;20.65;12.23;;;20.30;53.40;;;;;;5092215;28;20040;-76
2023/01/13 18:06:17;;;;;;;21.95;11.32;;;20.10;53.70;;;;;;5090476;28;20060;-77
2023/01/13 18:08:43;;;;;;;23.27;10.80;;;20.20;54.90;;;;;;5092396;28;20397;-77
2023/01/13 18:11:09;;;;;;;23.70;11.35;;;20.20;55.60;;;;;;5090569;28;20059;-76
2023/01/13 18:13:36;;;;;;;24.17;11.05;;;20.30;57.00;;;;;;5091630;28;20030;-76
2023/01/13 18:16:06;;;;;;;25.75;10.90;;;20.30;57.20;;;;;;5091382;28;20024;-76
2023/01/13 18:18:33;;;;;;;22.27;11.32;;;20.30;57.80;;;;;;5090697;28;20482;-76
2023/01/13 18:29:12;;;;;;;22.63;10.77;;;20.40;60.50;;;;;;5091954;28;20504;-76
2023/01/13 18:31:38;;;;;;;23.85;10.20;;;20.40;61.10;;;;;;5092082;28;20032;-75
2023/01/13 18:34:04;;;;;;;21.48;10.23;;;20.40;60.80;;;;;;5091891;28;20059;-75
2023/01/13 18:36:30;;;;;;;26.08;10.40;;;20.40;61.60;;;;;;5091360;28;20093;-76
2023/01/13 18:38:55;;;;;;;27.50;10.60;;;20.40;62.00;;;;;;5074010;28;20071;-76
2023/01/13 18:44:06;;;;;;;26.17;9.90;;;20.40;61.90;;;;;;5090348;28;20100;-76
2023/01/13 18:46:32;;;;;;;21.20;10.10;;;20.40;62.50;;;;;;5090949;28;20043;-76
2023/01/13 18:48:58;;;;;;;21.13;10.48;;;20.40;62.70;;;;;;5090371;28;20031;-76
2023/01/13 18:51:24;;;;;;;20.98;10.43;;;20.40;62.40;;;;;;5091441;28;20043;-76
2023/01/13 18:53:50;;;;;;;23.88;9.23;;;20.40;63.00;;;;;;5090132;28;20416;-75
2023/01/13 18:56:16;;;;;;;22.70;10.30;;;20.40;62.80;;;;;;5090884;28;20024;-76
2023/01/13 18:58:50;;;;;;;19.33;9.95;;;20.40;61.90;;;;;;5091384;28;20028;-76
2023/01/13 19:01:24;;;;;;;23.58;8.52;;;20.40;62.80;;;;;;5090128;28;20134;-76
2023/01/13 19:04:14;;;;;;;22.35;9.85;;;20.40;63.20;;;;;;5091252;28;20028;-76
2023/01/13 19:06:50;;;;;;;25.70;12.63;;;20.40;62.10;;;;;;5090969;28;20036;-73
2023/01/13 19:09:18;;;;;;;36.42;15.80;;;20.40;61.60;;;;;;5091197;28;20102;-75
2023/01/13 19:11:47;;;;;;;31.55;14.73;;;20.20;52.90;;;;;;5089912;28;20121;-76
2023/01/13 19:14:32;;;;;;;29.02;14.82;;;20.00;51.70;;;;;;5090858;28;20032;-75
2023/01/13 19:17:12;;;;;;;27.17;14.30;;;20.10;53.60;;;;;;5090742;28;20027;-76
2023/01/13 19:19:39;;;;;;;;;;;20.10;55.30;;;;;;5091403;28;20116;-76
2023/01/13 19:22:05;;;;;;;23.73;13.57;;;20.20;56.20;;;;;;5090887;28;19908;-77
2023/01/13 19:24:32;;;;;;;26.55;12.68;;;20.20;56.10;;;;;;5089186;28;20038;-77
2023/01/13 19:26:57;;;;;;;24.42;11.93;;;20.20;57.00;;;;;;5089464;28;20039;-78
2023/01/13 19:29:23;;;;;;;26.73;13.02;;;20.30;56.90;;;;;;5090892;28;20103;-78
2023/01/13 19:31:49;;;;;;;25.30;13.27;;;20.20;57.00;;;;;;5090603;28;20028;-77
2023/01/13 19:34:15;;;;;;;27.25;12.95;;;20.30;58.30;;;;;;5089989;28;20028;-77
2023/01/13 19:36:41;;;;;;;22.80;12.15;;;20.20;57.70;;;;;;5072117;28;20126;-77
2023/01/13 19:39:07;;;;;;;24.50;11.90;;;20.30;58.40;;;;;;5089209;28;20119;-78
2023/01/13 19:47:02;;;;;;;29.80;13.85;;;20.30;59.60;;;;;;5089051;28;20169;-76
2023/01/13 19:49:29;;;;;;;26.75;13.00;;;20.30;58.80;;;;;;5090019;28;20032;-76
2023/01/13 19:51:55;;;;;;;46.22;28.15;;;20.30;58.20;;;;;;5088854;28;20036;-77
2023/01/13 19:54:20;;;;;;;49.90;34.35;;;20.20;58.90;;;;;;5070242;28;20808;-77
2023/01/13 19:56:51;;;;;;;30.65;20.23;;;20.20;56.10;;;;;;5089159;28;20016;-77
2023/01/13 19:59:20;;;;;;;37.35;22.58;;;20.20;57.50;;;;;;5092135;28;20035;-77
2023/01/13 20:01:49;;;;;;;36.35;21.40;;;20.30;59.30;;;;;;5092323;28;20028;-77
